createdAt,value
2019-01-05T01:04:12.681Z,35.80
2019-01-05T01:07:39.564Z,18.10
2019-01-05T01:10:41.763Z,20.67
2019-01-05T01:13:58.808Z,22.17
2019-01-05T01:17:05.999Z,37.50
2019-01-05T01:20:20.560Z,30.70
2019-01-05T01:23:29.620Z,19.33
2019-01-05T01:26:41.264Z,21.77
2019-01-05T01:29:44.362Z,22.93
2019-01-05T01:32:51.678Z,23.57
2019-01-05T01:36:03.072Z,30.13
2019-01-05T01:39:38.317Z,18.63
2019-01-05T01:42:58.678Z,17.30
2019-01-05T01:46:08.393Z,20.97
2019-01-05T01:49:17.977Z,28.30
2019-01-05T01:52:25.444Z,21.00
2019-01-05T01:55:39.995Z,24.87
2019-01-05T01:58:51.190Z,25.50
2019-01-05T02:01:56.027Z,29.10
2019-01-05T02:05:01.733Z,23.57
2019-01-05T02:08:28.149Z,23.37
2019-01-05T02:11:38.571Z,43.60
2019-01-05T02:15:07.952Z,36.07
2019-01-05T02:18:51.215Z,33.43
2019-01-05T02:23:00.281Z,34.47
2019-01-05T02:26:57.854Z,29.73
2019-01-05T02:30:24.859Z,42.13
2019-01-05T02:34:03.708Z,31.17
2019-01-05T02:37:47.998Z,62.27
2019-01-05T02:41:23.640Z,42.13
2019-01-05T02:45:16.675Z,48.60
2019-01-05T02:49:00.174Z,86.67
2019-01-05T02:53:01.322Z,45.30
2019-01-05T02:57:13.869Z,45.00
2019-01-05T03:01:15.087Z,43.37
2019-01-05T03:05:09.616Z,37.67
2019-01-05T03:08:58.789Z,44.70
2019-01-05T03:12:48.240Z,44.10
2019-01-05T03:16:39.134Z,32.57
2019-01-05T03:20:37.054Z,39.73
2019-01-05T03:24:16.423Z,33.43
2019-01-05T03:27:59.024Z,30.53
2019-01-05T03:32:03.138Z,28.67
2019-01-05T03:35:38.280Z,25.23
2019-01-05T03:39:25.101Z,17.60
2019-01-05T03:42:52.065Z,19.87
2019-01-05T03:46:27.137Z,25.53
2019-01-05T03:50:41.342Z,26.03
2019-01-05T03:54:54.611Z,25.03
2019-01-05T03:59:04.461Z,47.60
2019-01-05T04:02:57.279Z,36.17
2019-01-05T04:06:39.124Z,24.53
2019-01-05T04:10:19.834Z,26.17
2019-01-05T04:14:08.074Z,22.30
2019-01-05T04:17:55.141Z,15.77
2019-01-05T04:21:45.811Z,24.00
2019-01-05T04:25:22.115Z,38.67
2019-01-05T04:29:11.370Z,174.77
2019-01-05T04:32:51.039Z,53.27
2019-01-05T04:36:26.837Z,52.63
2019-01-05T04:40:10.663Z,37.33
2019-01-05T04:44:01.855Z,59.70
2019-01-05T04:47:55.873Z,61.63
2019-01-05T04:51:35.987Z,53.87
2019-01-05T04:55:23.471Z,96.97
2019-01-05T04:59:09.783Z,119.17
2019-01-05T05:02:46.421Z,84.97
2019-01-05T05:06:40.091Z,94.23
2019-01-05T05:10:14.888Z,44.47
2019-01-05T05:14:11.467Z,34.13
2019-01-05T05:18:12.501Z,32.30
2019-01-05T05:22:32.946Z,55.33
2019-01-05T05:26:30.915Z,49.90
2019-01-05T05:30:23.012Z,82.93
2019-01-05T05:34:10.337Z,33.57
2019-01-05T05:37:52.442Z,28.00
2019-01-05T05:41:38.457Z,98.07
2019-01-05T05:45:42.621Z,175.83
2019-01-05T05:49:40.345Z,101.83
2019-01-05T05:54:11.897Z,140.07
2019-01-05T05:57:56.143Z,49.07
2019-01-05T06:02:06.006Z,44.93
2019-01-05T06:05:51.443Z,186.90
2019-01-05T06:09:40.580Z,103.63
2019-01-05T06:13:45.208Z,110.80
2019-01-05T06:17:34.643Z,96.73
2019-01-05T06:21:26.738Z,107.80
2019-01-05T06:25:07.066Z,88.23
2019-01-05T06:29:04.511Z,54.87
2019-01-05T06:32:46.263Z,80.53
2019-01-05T06:36:31.963Z,216.77
2019-01-05T06:40:37.984Z,99.40
2019-01-05T06:44:34.424Z,51.30
2019-01-05T06:51:25.157Z,138.73
2019-01-05T06:55:11.528Z,175.93
2019-01-05T06:59:17.382Z,47.90
2019-01-05T07:03:22.335Z,98.97
2019-01-05T07:07:02.041Z,78.80
2019-01-05T07:11:10.081Z,45.43
2019-01-05T07:14:54.284Z,72.90
2019-01-05T07:18:33.333Z,52.53
2019-01-05T07:22:32.786Z,41.97
2019-01-05T07:26:18.013Z,56.63
2019-01-05T07:30:16.861Z,51.77
2019-01-05T07:34:14.700Z,26.83
2019-01-05T07:38:05.703Z,77.80
2019-01-05T07:42:02.832Z,81.57
2019-01-05T07:45:41.354Z,116.17
2019-01-05T07:49:30.529Z,57.13
2019-01-05T07:53:50.031Z,123.23
2019-01-05T07:57:49.030Z,56.27
2019-01-05T08:01:35.392Z,105.60
2019-01-05T08:05:31.284Z,41.67
2019-01-05T08:09:22.465Z,68.63
2019-01-05T08:13:17.832Z,36.00
2019-01-05T08:17:30.842Z,56.63
2019-01-05T08:21:45.424Z,56.77
2019-01-05T08:25:27.931Z,81.20
2019-01-05T08:29:33.473Z,73.77
2019-01-05T08:33:34.136Z,80.17
2019-01-05T08:37:17.041Z,97.77
2019-01-05T08:41:01.269Z,32.90
2019-01-05T08:45:23.786Z,86.47
2019-01-05T08:49:29.701Z,89.87
2019-01-05T08:53:13.426Z,115.47
2019-01-05T08:57:11.502Z,133.80
2019-01-05T09:01:26.869Z,76.37
2019-01-05T09:05:25.692Z,56.90
2019-01-05T09:09:02.711Z,53.77
2019-01-05T09:12:45.371Z,63.70
2019-01-05T09:16:26.072Z,52.07
2019-01-05T09:20:43.010Z,40.83
2019-01-05T09:24:25.769Z,36.33
2019-01-05T09:28:19.881Z,52.43
2019-01-05T09:32:22.263Z,51.43
2019-01-05T09:36:39.526Z,45.37
2019-01-05T09:40:28.792Z,45.00
2019-01-05T09:44:28.267Z,57.27
2019-01-05T09:48:15.004Z,63.33
2019-01-05T09:52:10.273Z,107.77
2019-01-05T09:56:00.276Z,96.77
2019-01-05T09:59:50.255Z,61.53
2019-01-05T10:03:54.669Z,97.10
2019-01-05T10:07:29.402Z,66.67
2019-01-05T10:11:07.974Z,54.90
2019-01-05T10:14:55.416Z,39.10
2019-01-05T10:19:00.595Z,73.47
2019-01-05T10:22:52.412Z,100.30
2019-01-05T10:27:01.909Z,63.47
2019-01-05T10:31:03.661Z,90.87
2019-01-05T10:35:16.507Z,101.23
2019-01-05T10:39:18.768Z,91.40
2019-01-05T10:43:09.283Z,36.27
2019-01-05T10:46:56.004Z,46.03
2019-01-05T10:50:58.231Z,24.43
2019-01-05T10:54:55.430Z,71.97
2019-01-05T10:59:10.611Z,41.03
2019-01-05T11:03:07.226Z,24.87
2019-01-05T11:06:59.779Z,46.37
2019-01-05T11:10:57.844Z,23.00
2019-01-05T11:14:44.934Z,29.20
2019-01-05T11:18:42.169Z,54.93
2019-01-05T11:22:32.659Z,39.10
2019-01-05T11:26:32.512Z,37.60
2019-01-05T11:30:23.600Z,56.80
2019-01-05T11:34:12.628Z,37.87
2019-01-05T11:38:11.190Z,49.83
2019-01-05T11:42:13.404Z,35.17
2019-01-05T11:46:05.336Z,26.80
2019-01-05T11:50:03.273Z,29.53
2019-01-05T11:53:59.217Z,51.37
2019-01-05T11:57:49.391Z,45.77
2019-01-05T12:01:30.558Z,29.37
2019-01-05T12:05:36.778Z,37.73
2019-01-05T12:09:45.224Z,27.03
2019-01-05T12:13:23.511Z,19.83
2019-01-05T12:17:02.281Z,50.37
2019-01-05T12:20:55.074Z,32.87
2019-01-05T12:24:32.464Z,51.37
2019-01-05T12:28:22.964Z,49.87
2019-01-05T12:32:08.812Z,54.70
2019-01-05T12:35:58.036Z,35.27
2019-01-05T12:39:47.646Z,77.43
2019-01-05T12:43:38.322Z,97.40
2019-01-05T12:47:12.095Z,53.87
2019-01-05T12:50:55.803Z,42.40
2019-01-05T12:55:27.410Z,47.70
2019-01-05T12:59:14.273Z,46.33
2019-01-05T13:02:48.443Z,93.57
2019-01-05T13:06:44.223Z,103.73
2019-01-05T13:10:17.935Z,48.53
2019-01-05T13:14:14.141Z,62.23
2019-01-05T13:18:18.148Z,58.60
2019-01-05T13:22:02.201Z,52.50
2019-01-05T13:25:37.495Z,54.07
2019-01-05T13:29:01.087Z,96.00
2019-01-05T13:32:25.988Z,75.57
2019-01-05T13:36:10.034Z,65.00
2019-01-05T13:39:36.958Z,49.50
2019-01-05T13:43:27.661Z,66.80
2019-01-05T13:46:50.248Z,53.63
2019-01-05T13:50:19.778Z,59.57
2019-01-05T13:53:45.365Z,77.97
2019-01-05T13:56:56.605Z,123.60
2019-01-05T13:59:52.460Z,109.03
2019-01-05T14:02:54.245Z,91.50
2019-01-05T14:05:53.060Z,82.80
2019-01-05T14:08:45.614Z,80.90
2019-01-05T14:11:34.168Z,90.20
2019-01-05T14:14:36.134Z,91.27
2019-01-05T14:17:25.750Z,103.43
2019-01-05T14:20:15.918Z,72.17
2019-01-05T14:23:15.888Z,54.20
2019-01-05T14:26:05.707Z,36.00
2019-01-05T14:29:04.487Z,51.00
2019-01-05T14:31:53.043Z,50.23
2019-01-05T14:34:38.982Z,45.97
2019-01-05T14:37:24.256Z,51.73
2019-01-05T14:40:12.650Z,52.20
2019-01-05T14:43:08.637Z,52.93
2019-01-05T14:46:12.946Z,55.23
2019-01-05T14:49:02.749Z,68.70
2019-01-05T14:52:01.640Z,40.47
2019-01-05T14:55:06.844Z,42.30
2019-01-05T14:57:56.827Z,37.47
2019-01-05T15:00:49.372Z,64.53
2019-01-05T15:03:37.751Z,66.97
2019-01-05T15:06:26.447Z,74.60
2019-01-05T15:09:16.194Z,107.60
2019-01-05T15:12:06.019Z,182.10
2019-01-05T15:14:55.795Z,127.37
2019-01-05T15:17:48.284Z,132.87
2019-01-05T15:20:47.157Z,127.53
2019-01-05T15:23:36.934Z,130.33
2019-01-05T15:26:26.716Z,71.67
2019-01-05T15:29:22.778Z,113.30
2019-01-05T15:32:10.571Z,123.63
2019-01-05T15:35:09.841Z,199.37
2019-01-05T15:38:02.544Z,152.10
2019-01-05T15:41:08.681Z,117.03
2019-01-05T15:43:56.989Z,86.80
2019-01-05T15:46:45.493Z,67.27
2019-01-05T15:49:33.808Z,67.63
2019-01-05T15:52:24.227Z,68.47
2019-01-05T15:55:13.052Z,99.10
2019-01-05T15:58:05.943Z,78.83
2019-01-05T16:00:54.262Z,92.47
2019-01-05T16:03:42.719Z,61.30
2019-01-05T16:06:38.630Z,67.20
2019-01-05T16:09:34.311Z,72.43
2019-01-05T16:12:22.763Z,125.77
2019-01-05T16:15:11.743Z,71.83
2019-01-05T16:18:01.257Z,99.33
2019-01-05T16:21:03.421Z,97.33
2019-01-05T16:23:50.320Z,133.20
2019-01-05T16:26:44.316Z,138.63
2019-01-05T16:29:25.957Z,152.20
2019-01-05T16:32:15.771Z,125.83
2019-01-05T16:35:04.649Z,125.50
2019-01-05T16:38:06.922Z,89.57
2019-01-05T16:40:56.695Z,68.40
2019-01-05T16:43:46.044Z,68.40
2019-01-05T16:46:34.594Z,77.00
2019-01-05T16:49:30.150Z,187.10
2019-01-05T16:52:26.054Z,168.70
2019-01-05T16:55:18.872Z,153.00
2019-01-05T16:58:12.030Z,239.20
2019-01-05T17:01:04.337Z,347.93
2019-01-05T17:03:52.636Z,274.80
2019-01-05T17:06:41.151Z,214.23
2019-01-05T17:09:46.346Z,241.40
2019-01-05T17:12:42.079Z,273.13
2019-01-05T17:15:44.586Z,388.07
2019-01-05T17:18:38.558Z,315.57
2019-01-05T17:21:43.652Z,432.87
2019-01-05T17:24:32.029Z,235.40
2019-01-05T17:27:28.209Z,216.27
2019-01-05T17:30:19.788Z,215.77
2019-01-05T17:33:08.480Z,241.63
2019-01-05T17:36:13.986Z,265.95
2019-01-05T17:39:02.593Z,204.40
2019-01-05T17:41:51.373Z,142.83
2019-01-05T17:44:39.723Z,118.93
2019-01-05T17:47:29.844Z,128.93
2019-01-05T17:50:18.781Z,184.77
2019-01-05T17:53:14.498Z,211.77
2019-01-05T17:56:19.496Z,243.40
2019-01-05T17:59:12.193Z,219.70
2019-01-05T18:02:10.458Z,136.23
2019-01-05T18:05:15.731Z,354.40
2019-01-05T18:08:05.526Z,179.27
2019-01-05T18:11:12.241Z,185.67
2019-01-05T18:14:00.721Z,150.47
2019-01-05T18:17:08.703Z,174.50
2019-01-05T18:19:58.121Z,125.83
2019-01-05T18:22:56.842Z,171.60
2019-01-05T18:25:46.777Z,195.77
2019-01-05T18:28:48.717Z,226.87
2019-01-05T18:31:37.169Z,184.00
2019-01-05T18:34:42.346Z,158.37
2019-01-05T18:37:30.843Z,123.07
2019-01-05T18:40:19.560Z,114.93
2019-01-05T18:43:12.634Z,263.73
2019-01-05T18:46:02.644Z,234.57
2019-01-05T18:48:55.194Z,207.67
2019-01-05T18:51:45.873Z,208.47
2019-01-05T18:54:39.540Z,69.20
2019-01-05T18:57:29.575Z,94.43
2019-01-05T19:00:25.218Z,148.70
2019-01-05T19:03:13.792Z,149.13
2019-01-05T19:06:02.186Z,149.23
2019-01-05T19:09:10.541Z,168.23
2019-01-05T19:12:12.328Z,167.67
2019-01-05T19:15:01.134Z,169.80
2019-01-05T19:18:00.123Z,114.80
2019-01-05T19:20:49.686Z,98.27
2019-01-05T19:23:45.898Z,124.17
2019-01-05T19:26:54.227Z,117.10
2019-01-05T19:29:47.168Z,133.10
2019-01-05T19:32:46.040Z,146.53
2019-01-05T19:35:34.606Z,220.60
2019-01-05T19:38:27.506Z,222.63
2019-01-05T19:41:20.203Z,240.97
2019-01-05T19:44:09.079Z,205.90
2019-01-05T19:47:11.067Z,281.73
2019-01-05T19:50:19.092Z,277.40
2019-01-05T19:53:07.612Z,274.53
2019-01-05T19:55:56.680Z,142.67
2019-01-05T19:58:45.237Z,194.13
2019-01-05T20:01:38.099Z,168.73
2019-01-05T20:04:26.896Z,171.07
2019-01-05T20:07:02.853Z,128.70
2019-01-05T20:10:05.053Z,240.57
2019-01-05T20:13:00.233Z,283.30
2019-01-05T20:16:02.151Z,289.90
2019-01-05T20:19:10.486Z,257.27
2019-01-05T20:22:09.478Z,227.70
2019-01-05T20:25:14.482Z,209.27
2019-01-05T20:28:17.139Z,173.63
2019-01-05T20:31:07.112Z,89.60
2019-01-05T20:33:55.405Z,104.50
2019-01-05T20:36:43.848Z,166.73
2019-01-05T20:39:30.641Z,143.27
2019-01-05T20:42:29.484Z,149.67
2019-01-05T20:45:18.221Z,99.50
2019-01-05T20:48:11.137Z,116.33
2019-01-05T20:51:00.955Z,149.93
2019-01-05T20:54:02.973Z,107.73
2019-01-05T20:56:51.352Z,143.30
2019-01-05T21:00:06.296Z,87.53
2019-01-05T21:03:12.659Z,210.07
2019-01-05T21:06:33.928Z,205.80
2019-01-05T21:09:51.427Z,133.83
2019-01-05T21:12:58.779Z,210.53
2019-01-05T21:16:25.372Z,133.20
2019-01-05T21:19:42.348Z,155.20
2019-01-05T21:22:52.912Z,115.63
2019-01-05T21:26:13.585Z,152.60
2019-01-05T21:29:19.887Z,85.20
2019-01-05T21:32:28.330Z,144.47
2019-01-05T21:35:34.667Z,61.43
2019-01-05T21:38:46.828Z,138.17
2019-01-05T21:42:07.687Z,99.83
2019-01-05T21:45:14.693Z,120.60
2019-01-05T21:48:21.758Z,95.27
2019-01-05T21:51:43.386Z,130.97
2019-01-05T21:54:54.962Z,104.40
2019-01-05T21:58:02.069Z,73.40
2019-01-05T22:01:28.596Z,63.17
2019-01-05T22:04:36.316Z,57.70
2019-01-05T22:07:43.327Z,107.03
2019-01-05T22:11:00.957Z,106.37
2019-01-05T22:14:00.468Z,151.27
2019-01-05T22:17:07.449Z,200.63
2019-01-05T22:20:15.454Z,97.67
2019-01-05T22:23:26.537Z,72.10
2019-01-05T22:26:33.710Z,110.20
2019-01-05T22:29:40.996Z,93.57
2019-01-05T22:32:49.145Z,165.00
2019-01-05T22:36:02.440Z,83.00
2019-01-05T22:39:19.610Z,87.87
2019-01-05T22:42:28.883Z,258.45
2019-01-05T22:45:34.803Z,153.10
2019-01-05T22:48:43.033Z,241.73
2019-01-05T22:51:49.418Z,129.93
2019-01-05T22:55:02.200Z,134.07
2019-01-05T22:58:09.738Z,124.70
2019-01-05T23:01:36.453Z,129.00
2019-01-05T23:04:44.076Z,139.50
2019-01-05T23:08:01.470Z,175.87
2019-01-05T23:11:12.826Z,102.10
2019-01-05T23:14:41.595Z,216.40
2019-01-05T23:17:48.891Z,204.60
2019-01-05T23:21:12.471Z,236.07
2019-01-05T23:24:19.778Z,209.50
2019-01-05T23:27:40.330Z,241.60
2019-01-05T23:31:00.632Z,257.07
2019-01-05T23:34:17.178Z,232.40
2019-01-05T23:37:37.330Z,183.40
2019-01-05T23:40:43.449Z,167.93
2019-01-05T23:43:51.977Z,186.70
2019-01-05T23:46:58.457Z,143.80
2019-01-05T23:50:21.655Z,173.20
2019-01-05T23:53:30.133Z,171.43
2019-01-05T23:56:37.096Z,164.87
2019-01-05T23:59:43.980Z,167.53
